sensor_id;sensor_type;location;lat;lon;timestamp;temperature;humidity
53254;DHT22;39148;53.332;6.922;2023-10-13T00:00:08;15.70;92.70
53254;DHT22;39148;53.332;6.922;2023-10-13T00:02:51;15.70;92.70
53254;DHT22;39148;53.332;6.922;2023-10-13T00:05:18;15.70;92.70
53254;DHT22;39148;53.332;6.922;2023-10-13T00:07:45;15.80;92.80
53254;DHT22;39148;53.332;6.922;2023-10-13T00:10:11;15.80;92.80
53254;DHT22;39148;53.332;6.922;2023-10-13T00:12:37;15.70;92.80
53254;DHT22;39148;53.332;6.922;2023-10-13T00:15:04;15.80;91.80
53254;DHT22;39148;53.332;6.922;2023-10-13T00:17:32;15.90;92.80
53254;DHT22;39148;53.332;6.922;2023-10-13T00:19:58;15.80;92.80
53254;DHT22;39148;53.332;6.922;2023-10-13T00:22:25;15.90;92.80
53254;DHT22;39148;53.332;6.922;2023-10-13T00:24:53;15.90;92.80
53254;DHT22;39148;53.332;6.922;2023-10-13T00:27:24;15.90;92.80
53254;DHT22;39148;53.332;6.922;2023-10-13T00:30:04;15.70;92.80
53254;DHT22;39148;53.332;6.922;2023-10-13T00:32:52;15.80;92.80
53254;DHT22;39148;53.332;6.922;2023-10-13T00:35:28;15.80;92.80
53254;DHT22;39148;53.332;6.922;2023-10-13T00:37:58;15.70;92.80
53254;DHT22;39148;53.332;6.922;2023-10-13T00:40:30;15.80;92.80
53254;DHT22;39148;53.332;6.922;2023-10-13T00:42:59;15.60;92.70
53254;DHT22;39148;53.332;6.922;2023-10-13T00:45:52;15.70;92.80
53254;DHT22;39148;53.332;6.922;2023-10-13T00:48:29;15.70;92.80
53254;DHT22;39148;53.332;6.922;2023-10-13T00:51:04;15.70;92.80
53254;DHT22;39148;53.332;6.922;2023-10-13T00:53:33;15.80;92.80
53254;DHT22;39148;53.332;6.922;2023-10-13T00:56:02;15.70;92.80
53254;DHT22;39148;53.332;6.922;2023-10-13T00:58:34;15.80;92.80
53254;DHT22;39148;53.332;6.922;2023-10-13T01:01:03;15.80;92.80
53254;DHT22;39148;53.332;6.922;2023-10-13T01:03:53;15.80;92.80
53254;DHT22;39148;53.332;6.922;2023-10-13T01:06:26;15.70;92.80
53254;DHT22;39148;53.332;6.922;2023-10-13T01:09:04;15.70;92.80
53254;DHT22;39148;53.332;6.922;2023-10-13T01:11:44;15.80;92.80
53254;DHT22;39148;53.332;6.922;2023-10-13T01:14:12;15.70;92.80
53254;DHT22;39148;53.332;6.922;2023-10-13T01:16:40;15.70;92.80
53254;DHT22;39148;53.332;6.922;2023-10-13T01:19:13;15.80;92.80
53254;DHT22;39148;53.332;6.922;2023-10-13T01:21:40;15.90;92.90
53254;DHT22;39148;53.332;6.922;2023-10-13T01:24:13;15.60;92.80
53254;DHT22;39148;53.332;6.922;2023-10-13T01:26:39;15.80;92.80
53254;DHT22;39148;53.332;6.922;2023-10-13T01:29:08;15.80;92.80
53254;DHT22;39148;53.332;6.922;2023-10-13T01:31:44;15.70;92.80
53254;DHT22;39148;53.332;6.922;2023-10-13T01:36:40;15.80;92.80
53254;DHT22;39148;53.332;6.922;2023-10-13T01:39:07;15.60;92.80
53254;DHT22;39148;53.332;6.922;2023-10-13T01:44:04;15.80;92.80
53254;DHT22;39148;53.332;6.922;2023-10-13T01:46:30;15.80;92.80
53254;DHT22;39148;53.332;6.922;2023-10-13T01:48:56;15.90;92.80
53254;DHT22;39148;53.332;6.922;2023-10-13T01:51:22;15.60;92.80
53254;DHT22;39148;53.332;6.922;2023-10-13T01:53:48;15.70;92.80
53254;DHT22;39148;53.332;6.922;2023-10-13T01:56:22;15.60;92.80
53254;DHT22;39148;53.332;6.922;2023-10-13T01:58:49;15.80;92.80
53254;DHT22;39148;53.332;6.922;2023-10-13T02:01:15;15.90;92.80
53254;DHT22;39148;53.332;6.922;2023-10-13T02:03:53;15.80;92.80
53254;DHT22;39148;53.332;6.922;2023-10-13T02:06:27;15.60;92.80
53254;DHT22;39148;53.332;6.922;2023-10-13T02:09:03;15.70;92.80
53254;DHT22;39148;53.332;6.922;2023-10-13T02:11:51;15.60;92.80
53254;DHT22;39148;53.332;6.922;2023-10-13T02:14:22;15.80;92.80
53254;DHT22;39148;53.332;6.922;2023-10-13T02:16:48;15.80;92.80
53254;DHT22;39148;53.332;6.922;2023-10-13T02:19:22;15.60;92.80
53254;DHT22;39148;53.332;6.922;2023-10-13T02:21:52;15.80;92.80
53254;DHT22;39148;53.332;6.922;2023-10-13T02:24:24;15.80;92.80
53254;DHT22;39148;53.332;6.922;2023-10-13T02:26:58;15.80;92.80
53254;DHT22;39148;53.332;6.922;2023-10-13T02:29:30;15.80;92.80
53254;DHT22;39148;53.332;6.922;2023-10-13T02:31:56;15.90;92.80
53254;DHT22;39148;53.332;6.922;2023-10-13T02:34:22;15.80;92.80
53254;DHT22;39148;53.332;6.922;2023-10-13T02:36:49;15.60;92.80
53254;DHT22;39148;53.332;6.922;2023-10-13T02:39:18;15.80;92.80
53254;DHT22;39148;53.332;6.922;2023-10-13T02:41:51;15.70;92.80
53254;DHT22;39148;53.332;6.922;2023-10-13T02:44:17;15.80;92.80
53254;DHT22;39148;53.332;6.922;2023-10-13T02:46:54;15.80;92.80
53254;DHT22;39148;53.332;6.922;2023-10-13T02:49:25;15.80;92.80
53254;DHT22;39148;53.332;6.922;2023-10-13T02:51:53;15.70;91.60
53254;DHT22;39148;53.332;6.922;2023-10-13T02:54:21;15.70;92.80
53254;DHT22;39148;53.332;6.922;2023-10-13T02:56:46;15.70;92.80
53254;DHT22;39148;53.332;6.922;2023-10-13T02:59:23;15.60;92.70
53254;DHT22;39148;53.332;6.922;2023-10-13T03:02:03;15.60;92.70
53254;DHT22;39148;53.332;6.922;2023-10-13T03:04:41;15.80;92.80
53254;DHT22;39148;53.332;6.922;2023-10-13T03:07:06;15.80;92.80
53254;DHT22;39148;53.332;6.922;2023-10-13T03:09:32;15.70;92.80
53254;DHT22;39148;53.332;6.922;2023-10-13T03:12:03;15.70;92.80
53254;DHT22;39148;53.332;6.922;2023-10-13T03:14:29;15.90;92.80
53254;DHT22;39148;53.332;6.922;2023-10-13T03:17:02;15.80;92.80
53254;DHT22;39148;53.332;6.922;2023-10-13T03:19:29;15.70;92.80
53254;DHT22;39148;53.332;6.922;2023-10-13T03:22:05;15.80;92.80
53254;DHT22;39148;53.332;6.922;2023-10-13T03:24:42;15.70;92.80
53254;DHT22;39148;53.332;6.922;2023-10-13T03:27:17;15.60;92.80
53254;DHT22;39148;53.332;6.922;2023-10-13T03:29:47;15.70;92.80
53254;DHT22;39148;53.332;6.922;2023-10-13T03:32:15;15.80;91.90
53254;DHT22;39148;53.332;6.922;2023-10-13T03:34:45;15.70;92.80
53254;DHT22;39148;53.332;6.922;2023-10-13T03:37:29;15.70;92.80
53254;DHT22;39148;53.332;6.922;2023-10-13T03:40:08;15.60;92.80
53254;DHT22;39148;53.332;6.922;2023-10-13T03:42:56;15.80;92.80
53254;DHT22;39148;53.332;6.922;2023-10-13T03:45:36;15.70;92.80
53254;DHT22;39148;53.332;6.922;2023-10-13T03:48:13;15.60;92.70
53254;DHT22;39148;53.332;6.922;2023-10-13T03:51:00;15.70;92.80
53254;DHT22;39148;53.332;6.922;2023-10-13T03:53:42;15.80;92.80
53254;DHT22;39148;53.332;6.922;2023-10-13T03:56:28;15.80;92.80
53254;DHT22;39148;53.332;6.922;2023-10-13T03:58:55;15.70;92.80
53254;DHT22;39148;53.332;6.922;2023-10-13T04:01:26;15.80;92.80
53254;DHT22;39148;53.332;6.922;2023-10-13T04:04:06;15.70;92.70
53254;DHT22;39148;53.332;6.922;2023-10-13T04:06:40;15.70;92.70
53254;DHT22;39148;53.332;6.922;2023-10-13T04:09:15;15.90;92.80
53254;DHT22;39148;53.332;6.922;2023-10-13T04:11:59;15.70;92.70
53254;DHT22;39148;53.332;6.922;2023-10-13T04:14:25;15.70;92.70
53254;DHT22;39148;53.332;6.922;2023-10-13T04:17:11;15.70;92.80
53254;DHT22;39148;53.332;6.922;2023-10-13T04:19:43;15.90;92.80
53254;DHT22;39148;53.332;6.922;2023-10-13T04:28:14;15.80;92.80
53254;DHT22;39148;53.332;6.922;2023-10-13T04:30:49;15.90;92.90
53254;DHT22;39148;53.332;6.922;2023-10-13T04:33:21;15.70;91.60
53254;DHT22;39148;53.332;6.922;2023-10-13T04:36:07;15.70;92.80
53254;DHT22;39148;53.332;6.922;2023-10-13T04:38:43;15.80;92.80
53254;DHT22;39148;53.332;6.922;2023-10-13T04:41:25;15.80;92.80
53254;DHT22;39148;53.332;6.922;2023-10-13T04:43:59;15.80;92.80
53254;DHT22;39148;53.332;6.922;2023-10-13T04:46:51;15.90;92.90
53254;DHT22;39148;53.332;6.922;2023-10-13T04:49:20;15.70;92.80
53254;DHT22;39148;53.332;6.922;2023-10-13T04:52:03;15.80;92.80
53254;DHT22;39148;53.332;6.922;2023-10-13T04:54:38;15.90;92.80
53254;DHT22;39148;53.332;6.922;2023-10-13T04:57:17;15.90;92.90
53254;DHT22;39148;53.332;6.922;2023-10-13T04:59:59;15.70;92.80
53254;DHT22;39148;53.332;6.922;2023-10-13T05:02:43;16.00;92.90
53254;DHT22;39148;53.332;6.922;2023-10-13T05:05:13;15.80;92.80
53254;DHT22;39148;53.332;6.922;2023-10-13T05:07:40;15.80;92.80
53254;DHT22;39148;53.332;6.922;2023-10-13T05:10:41;15.80;92.80
53254;DHT22;39148;53.332;6.922;2023-10-13T05:13:25;15.70;92.80
53254;DHT22;39148;53.332;6.922;2023-10-13T05:16:10;15.90;92.80
53254;DHT22;39148;53.332;6.922;2023-10-13T05:18:54;15.80;92.80
53254;DHT22;39148;53.332;6.922;2023-10-13T05:21:38;15.70;92.80
53254;DHT22;39148;53.332;6.922;2023-10-13T05:24:22;15.90;92.90
53254;DHT22;39148;53.332;6.922;2023-10-13T05:27:06;15.80;92.80
53254;DHT22;39148;53.332;6.922;2023-10-13T05:29:50;16.00;92.90
53254;DHT22;39148;53.332;6.922;2023-10-13T05:32:35;15.90;92.80
53254;DHT22;39148;53.332;6.922;2023-10-13T05:35:23;15.90;92.80
53254;DHT22;39148;53.332;6.922;2023-10-13T05:38:07;15.90;92.80
53254;DHT22;39148;53.332;6.922;2023-10-13T05:43:36;15.90;92.80
53254;DHT22;39148;53.332;6.922;2023-10-13T05:46:20;15.90;92.80
53254;DHT22;39148;53.332;6.922;2023-10-13T05:48:52;15.90;92.80
53254;DHT22;39148;53.332;6.922;2023-10-13T05:51:25;15.80;92.80
53254;DHT22;39148;53.332;6.922;2023-10-13T05:54:11;16.00;92.90
53254;DHT22;39148;53.332;6.922;2023-10-13T05:59:27;16.00;92.80
53254;DHT22;39148;53.332;6.922;2023-10-13T06:02:14;15.80;92.80
53254;DHT22;39148;53.332;6.922;2023-10-13T06:05:01;15.90;92.80
53254;DHT22;39148;53.332;6.922;2023-10-13T06:07:48;15.80;92.80
53254;DHT22;39148;53.332;6.922;2023-10-13T06:10:33;16.00;92.90
53254;DHT22;39148;53.332;6.922;2023-10-13T06:13:17;15.80;92.80
53254;DHT22;39148;53.332;6.922;2023-10-13T06:16:06;15.90;92.90
53254;DHT22;39148;53.332;6.922;2023-10-13T06:18:50;15.80;92.80
53254;DHT22;39148;53.332;6.922;2023-10-13T06:21:34;15.90;92.80
53254;DHT22;39148;53.332;6.922;2023-10-13T06:24:18;15.90;92.90
53254;DHT22;39148;53.332;6.922;2023-10-13T06:27:02;15.90;92.90
53254;DHT22;39148;53.332;6.922;2023-10-13T06:29:47;15.90;92.90
53254;DHT22;39148;53.332;6.922;2023-10-13T06:32:14;15.90;92.00
53254;DHT22;39148;53.332;6.922;2023-10-13T06:34:42;16.10;92.90
53254;DHT22;39148;53.332;6.922;2023-10-13T06:39:53;16.00;92.90
53254;DHT22;39148;53.332;6.922;2023-10-13T06:42:28;16.00;92.90
53254;DHT22;39148;53.332;6.922;2023-10-13T06:44:57;15.80;92.90
53254;DHT22;39148;53.332;6.922;2023-10-13T06:47:25;16.10;92.90
53254;DHT22;39148;53.332;6.922;2023-10-13T06:52:20;15.80;92.90
53254;DHT22;39148;53.332;6.922;2023-10-13T06:54:52;16.00;92.90
53254;DHT22;39148;53.332;6.922;2023-10-13T06:57:18;15.90;92.30
53254;DHT22;39148;53.332;6.922;2023-10-13T06:59:47;16.10;92.90
53254;DHT22;39148;53.332;6.922;2023-10-13T07:02:13;16.00;92.60
53254;DHT22;39148;53.332;6.922;2023-10-13T07:04:48;16.00;93.00
53254;DHT22;39148;53.332;6.922;2023-10-13T07:07:16;16.10;93.00
53254;DHT22;39148;53.332;6.922;2023-10-13T07:09:42;16.10;93.10
53254;DHT22;39148;53.332;6.922;2023-10-13T07:12:15;16.10;93.10
53254;DHT22;39148;53.332;6.922;2023-10-13T07:14:53;16.00;91.90
53254;DHT22;39148;53.332;6.922;2023-10-13T07:17:36;16.00;93.10
53254;DHT22;39148;53.332;6.922;2023-10-13T07:20:05;16.10;93.10
53254;DHT22;39148;53.332;6.922;2023-10-13T07:22:41;16.10;93.10
53254;DHT22;39148;53.332;6.922;2023-10-13T07:25:11;16.00;93.10
53254;DHT22;39148;53.332;6.922;2023-10-13T07:27:49;16.00;93.20
53254;DHT22;39148;53.332;6.922;2023-10-13T07:30:14;15.90;93.20
53254;DHT22;39148;53.332;6.922;2023-10-13T07:32:45;16.10;93.20
53254;DHT22;39148;53.332;6.922;2023-10-13T07:35:16;16.00;93.30
53254;DHT22;39148;53.332;6.922;2023-10-13T07:37:46;16.00;93.30
53254;DHT22;39148;53.332;6.922;2023-10-13T07:40:18;16.00;93.40
53254;DHT22;39148;53.332;6.922;2023-10-13T07:42:50;16.10;93.40
53254;DHT22;39148;53.332;6.922;2023-10-13T07:45:16;16.00;93.40
53254;DHT22;39148;53.332;6.922;2023-10-13T07:47:51;16.20;93.50
53254;DHT22;39148;53.332;6.922;2023-10-13T07:50:17;16.10;93.50
53254;DHT22;39148;53.332;6.922;2023-10-13T07:52:51;16.00;93.50
53254;DHT22;39148;53.332;6.922;2023-10-13T07:55:24;16.10;93.60
53254;DHT22;39148;53.332;6.922;2023-10-13T07:57:50;16.10;93.60
53254;DHT22;39148;53.332;6.922;2023-10-13T08:00:25;16.10;93.60
53254;DHT22;39148;53.332;6.922;2023-10-13T08:05:44;16.00;93.70
53254;DHT22;39148;53.332;6.922;2023-10-13T08:08:45;16.20;93.70
53254;DHT22;39148;53.332;6.922;2023-10-13T08:11:16;15.90;93.60
53254;DHT22;39148;53.332;6.922;2023-10-13T08:13:52;16.00;93.60
53254;DHT22;39148;53.332;6.922;2023-10-13T08:16:24;15.90;93.60
53254;DHT22;39148;53.332;6.922;2023-10-13T08:18:55;16.20;93.70
53254;DHT22;39148;53.332;6.922;2023-10-13T08:21:21;16.10;93.70
53254;DHT22;39148;53.332;6.922;2023-10-13T08:23:50;16.00;93.60
53254;DHT22;39148;53.332;6.922;2023-10-13T08:26:19;16.20;93.70
53254;DHT22;39148;53.332;6.922;2023-10-13T08:29:03;16.00;92.60
53254;DHT22;39148;53.332;6.922;2023-10-13T08:31:44;15.90;92.50
53254;DHT22;39148;53.332;6.922;2023-10-13T08:34:33;16.20;93.70
53254;DHT22;39148;53.332;6.922;2023-10-13T08:37:09;16.20;93.70
53254;DHT22;39148;53.332;6.922;2023-10-13T08:39:57;16.00;93.60
53254;DHT22;39148;53.332;6.922;2023-10-13T08:42:37;16.20;93.50
53254;DHT22;39148;53.332;6.922;2023-10-13T08:48:00;16.00;92.70
53254;DHT22;39148;53.332;6.922;2023-10-13T08:50:39;16.10;93.70
53254;DHT22;39148;53.332;6.922;2023-10-13T08:58:42;16.20;93.70
53254;DHT22;39148;53.332;6.922;2023-10-13T09:01:28;16.00;93.70
53254;DHT22;39148;53.332;6.922;2023-10-13T09:06:56;16.10;93.70
53254;DHT22;39148;53.332;6.922;2023-10-13T09:09:26;16.20;93.80
53254;DHT22;39148;53.332;6.922;2023-10-13T09:12:15;16.20;93.70
53254;DHT22;39148;53.332;6.922;2023-10-13T09:14:42;16.20;93.20
53254;DHT22;39148;53.332;6.922;2023-10-13T09:17:10;16.10;93.80
53254;DHT22;39148;53.332;6.922;2023-10-13T09:19:52;16.10;93.70
53254;DHT22;39148;53.332;6.922;2023-10-13T09:22:29;16.20;93.80
53254;DHT22;39148;53.332;6.922;2023-10-13T09:25:07;16.20;93.80
53254;DHT22;39148;53.332;6.922;2023-10-13T09:27:39;16.30;94.00
53254;DHT22;39148;53.332;6.922;2023-10-13T09:30:06;16.20;93.80
53254;DHT22;39148;53.332;6.922;2023-10-13T09:33:03;16.10;93.20
53254;DHT22;39148;53.332;6.922;2023-10-13T09:35:34;16.20;93.80
53254;DHT22;39148;53.332;6.922;2023-10-13T09:38:03;16.10;93.90
53254;DHT22;39148;53.332;6.922;2023-10-13T09:40:29;16.20;93.00
53254;DHT22;39148;53.332;6.922;2023-10-13T09:43:01;16.20;94.00
53254;DHT22;39148;53.332;6.922;2023-10-13T09:45:33;16.30;94.10
53254;DHT22;39148;53.332;6.922;2023-10-13T09:48:10;16.20;94.00
53254;DHT22;39148;53.332;6.922;2023-10-13T09:50:46;16.20;94.10
53254;DHT22;39148;53.332;6.922;2023-10-13T09:53:14;16.40;93.40
53254;DHT22;39148;53.332;6.922;2023-10-13T09:56:43;16.40;92.90
53254;DHT22;39148;53.332;6.922;2023-10-13T09:59:19;16.30;94.00
53254;DHT22;39148;53.332;6.922;2023-10-13T10:01:48;16.40;94.20
53254;DHT22;39148;53.332;6.922;2023-10-13T10:04:18;16.30;94.20
53254;DHT22;39148;53.332;6.922;2023-10-13T10:07:11;16.40;94.30
53254;DHT22;39148;53.332;6.922;2023-10-13T10:09:59;16.40;94.30
53254;DHT22;39148;53.332;6.922;2023-10-13T10:12:28;16.30;94.30
53254;DHT22;39148;53.332;6.922;2023-10-13T10:17:24;16.30;94.30
53254;DHT22;39148;53.332;6.922;2023-10-13T10:19:55;16.40;94.30
53254;DHT22;39148;53.332;6.922;2023-10-13T10:25:05;16.50;94.40
53254;DHT22;39148;53.332;6.922;2023-10-13T10:27:58;16.40;94.30
53254;DHT22;39148;53.332;6.922;2023-10-13T10:30:28;16.50;94.30
53254;DHT22;39148;53.332;6.922;2023-10-13T10:32:55;16.50;94.30
53254;DHT22;39148;53.332;6.922;2023-10-13T10:35:34;16.50;94.40
53254;DHT22;39148;53.332;6.922;2023-10-13T10:38:16;16.40;94.40
53254;DHT22;39148;53.332;6.922;2023-10-13T10:41:03;16.50;94.40
53254;DHT22;39148;53.332;6.922;2023-10-13T10:46:09;16.50;94.40
53254;DHT22;39148;53.332;6.922;2023-10-13T10:48:37;16.60;94.50
53254;DHT22;39148;53.332;6.922;2023-10-13T10:51:09;16.50;94.40
53254;DHT22;39148;53.332;6.922;2023-10-13T10:53:40;16.50;94.50
53254;DHT22;39148;53.332;6.922;2023-10-13T10:56:13;16.60;94.50
53254;DHT22;39148;53.332;6.922;2023-10-13T10:58:46;16.50;94.40
53254;DHT22;39148;53.332;6.922;2023-10-13T11:01:12;16.50;94.30
53254;DHT22;39148;53.332;6.922;2023-10-13T11:03:59;16.60;94.30
53254;DHT22;39148;53.332;6.922;2023-10-13T11:09:06;16.60;93.10
53254;DHT22;39148;53.332;6.922;2023-10-13T11:11:53;16.60;94.30
53254;DHT22;39148;53.332;6.922;2023-10-13T11:14:29;16.60;94.20
53254;DHT22;39148;53.332;6.922;2023-10-13T11:16:56;16.70;94.30
53254;DHT22;39148;53.332;6.922;2023-10-13T11:19:40;16.70;94.30
53254;DHT22;39148;53.332;6.922;2023-10-13T11:22:16;16.70;94.30
53254;DHT22;39148;53.332;6.922;2023-10-13T11:24:58;16.60;94.30
53254;DHT22;39148;53.332;6.922;2023-10-13T11:27:37;16.70;94.30
53254;DHT22;39148;53.332;6.922;2023-10-13T11:30:12;16.90;94.40
53254;DHT22;39148;53.332;6.922;2023-10-13T11:32:42;16.80;94.40
53254;DHT22;39148;53.332;6.922;2023-10-13T11:35:11;16.90;94.50
53254;DHT22;39148;53.332;6.922;2023-10-13T11:37:52;16.80;94.40
53254;DHT22;39148;53.332;6.922;2023-10-13T11:40:38;16.80;94.40
53254;DHT22;39148;53.332;6.922;2023-10-13T11:43:25;16.90;94.40
53254;DHT22;39148;53.332;6.922;2023-10-13T11:45:51;16.80;94.40
53254;DHT22;39148;53.332;6.922;2023-10-13T11:48:26;16.90;94.40
53254;DHT22;39148;53.332;6.922;2023-10-13T11:51:05;16.90;94.00
53254;DHT22;39148;53.332;6.922;2023-10-13T11:53:34;17.00;94.40
53254;DHT22;39148;53.332;6.922;2023-10-13T11:56:01;17.00;94.40
53254;DHT22;39148;53.332;6.922;2023-10-13T11:58:27;17.10;94.40
53254;DHT22;39148;53.332;6.922;2023-10-13T12:00:55;17.00;94.40
53254;DHT22;39148;53.332;6.922;2023-10-13T12:03:47;17.00;94.40
53254;DHT22;39148;53.332;6.922;2023-10-13T12:06:33;16.90;94.40
53254;DHT22;39148;53.332;6.922;2023-10-13T12:09:10;17.10;94.40
53254;DHT22;39148;53.332;6.922;2023-10-13T12:11:42;17.20;94.40
53254;DHT22;39148;53.332;6.922;2023-10-13T12:14:13;17.00;94.40
53254;DHT22;39148;53.332;6.922;2023-10-13T12:16:46;17.10;94.40
53254;DHT22;39148;53.332;6.922;2023-10-13T12:19:25;17.10;94.40
53254;DHT22;39148;53.332;6.922;2023-10-13T12:21:57;17.10;94.40
53254;DHT22;39148;53.332;6.922;2023-10-13T12:24:27;17.10;93.60
53254;DHT22;39148;53.332;6.922;2023-10-13T12:27:16;17.10;94.40
53254;DHT22;39148;53.332;6.922;2023-10-13T12:32:12;17.30;94.40
53254;DHT22;39148;53.332;6.922;2023-10-13T12:34:39;17.30;94.50
53254;DHT22;39148;53.332;6.922;2023-10-13T12:37:25;17.00;94.40
53254;DHT22;39148;53.332;6.922;2023-10-13T12:40:14;17.20;94.40
53254;DHT22;39148;53.332;6.922;2023-10-13T12:42:59;17.30;94.50
53254;DHT22;39148;53.332;6.922;2023-10-13T12:45:45;17.30;94.40
53254;DHT22;39148;53.332;6.922;2023-10-13T12:48:31;17.30;94.40
53254;DHT22;39148;53.332;6.922;2023-10-13T12:51:15;17.40;94.40
53254;DHT22;39148;53.332;6.922;2023-10-13T12:53:54;17.40;93.80
53254;DHT22;39148;53.332;6.922;2023-10-13T12:56:21;17.50;93.40
53254;DHT22;39148;53.332;6.922;2023-10-13T12:58:54;17.50;94.30
53254;DHT22;39148;53.332;6.922;2023-10-13T13:01:26;17.40;94.30
53254;DHT22;39148;53.332;6.922;2023-10-13T13:03:58;17.50;94.30
53254;DHT22;39148;53.332;6.922;2023-10-13T13:06:27;17.40;94.30
53254;DHT22;39148;53.332;6.922;2023-10-13T13:08:59;17.40;94.30
53254;DHT22;39148;53.332;6.922;2023-10-13T13:11:25;17.50;94.30
53254;DHT22;39148;53.332;6.922;2023-10-13T13:13:53;17.40;94.20
53254;DHT22;39148;53.332;6.922;2023-10-13T13:16:19;17.30;94.30
53254;DHT22;39148;53.332;6.922;2023-10-13T13:18:55;17.40;93.10
53254;DHT22;39148;53.332;6.922;2023-10-13T13:21:21;17.30;94.20
53254;DHT22;39148;53.332;6.922;2023-10-13T13:23:52;17.50;94.30
53254;DHT22;39148;53.332;6.922;2023-10-13T13:26:20;17.50;93.60
53254;DHT22;39148;53.332;6.922;2023-10-13T13:28:48;17.50;94.30
53254;DHT22;39148;53.332;6.922;2023-10-13T13:31:19;17.40;94.30
53254;DHT22;39148;53.332;6.922;2023-10-13T13:33:50;17.60;94.30
53254;DHT22;39148;53.332;6.922;2023-10-13T13:36:16;17.60;94.30
53254;DHT22;39148;53.332;6.922;2023-10-13T13:38:43;17.50;94.30
53254;DHT22;39148;53.332;6.922;2023-10-13T13:41:15;17.40;94.30
53254;DHT22;39148;53.332;6.922;2023-10-13T13:43:44;17.60;94.20
53254;DHT22;39148;53.332;6.922;2023-10-13T13:46:30;17.50;94.40
53254;DHT22;39148;53.332;6.922;2023-10-13T13:48:59;17.40;94.30
53254;DHT22;39148;53.332;6.922;2023-10-13T13:51:27;17.60;94.40
53254;DHT22;39148;53.332;6.922;2023-10-13T13:53:57;17.50;94.40
53254;DHT22;39148;53.332;6.922;2023-10-13T13:56:23;17.60;93.70
53254;DHT22;39148;53.332;6.922;2023-10-13T13:58:54;17.40;94.10
53254;DHT22;39148;53.332;6.922;2023-10-13T14:01:21;17.40;94.30
53254;DHT22;39148;53.332;6.922;2023-10-13T14:03:48;17.60;94.30
53254;DHT22;39148;53.332;6.922;2023-10-13T14:06:20;17.40;94.30
53254;DHT22;39148;53.332;6.922;2023-10-13T14:08:54;17.40;94.30
53254;DHT22;39148;53.332;6.922;2023-10-13T14:11:27;17.50;94.30
53254;DHT22;39148;53.332;6.922;2023-10-13T14:14:05;17.70;94.30
53254;DHT22;39148;53.332;6.922;2023-10-13T14:16:38;17.40;94.30
53254;DHT22;39148;53.332;6.922;2023-10-13T14:19:10;17.50;94.30
53254;DHT22;39148;53.332;6.922;2023-10-13T14:21:36;17.50;93.60
53254;DHT22;39148;53.332;6.922;2023-10-13T14:24:02;17.70;94.40
53254;DHT22;39148;53.332;6.922;2023-10-13T14:26:28;17.50;94.40
53254;DHT22;39148;53.332;6.922;2023-10-13T14:28:55;17.50;94.30
53254;DHT22;39148;53.332;6.922;2023-10-13T14:31:31;17.40;94.30
53254;DHT22;39148;53.332;6.922;2023-10-13T14:33:57;17.50;94.30
53254;DHT22;39148;53.332;6.922;2023-10-13T14:36:24;17.50;93.80
53254;DHT22;39148;53.332;6.922;2023-10-13T14:38:57;17.50;94.20
53254;DHT22;39148;53.332;6.922;2023-10-13T14:41:23;17.60;94.30
53254;DHT22;39148;53.332;6.922;2023-10-13T14:43:48;17.50;94.30
53254;DHT22;39148;53.332;6.922;2023-10-13T14:46:15;17.40;94.30
53254;DHT22;39148;53.332;6.922;2023-10-13T14:48:42;17.60;94.30
53254;DHT22;39148;53.332;6.922;2023-10-13T14:51:11;17.50;94.30
53254;DHT22;39148;53.332;6.922;2023-10-13T14:53:46;17.60;94.30
53254;DHT22;39148;53.332;6.922;2023-10-13T14:56:12;17.50;94.30
53254;DHT22;39148;53.332;6.922;2023-10-13T14:58:39;17.60;94.30
53254;DHT22;39148;53.332;6.922;2023-10-13T15:01:15;17.40;94.20
53254;DHT22;39148;53.332;6.922;2023-10-13T15:03:47;17.50;94.20
53254;DHT22;39148;53.332;6.922;2023-10-13T15:06:17;17.50;94.20
53254;DHT22;39148;53.332;6.922;2023-10-13T15:08:44;17.70;94.30
53254;DHT22;39148;53.332;6.922;2023-10-13T15:11:14;17.70;94.30
53254;DHT22;39148;53.332;6.922;2023-10-13T15:13:44;17.70;94.30
53254;DHT22;39148;53.332;6.922;2023-10-13T15:16:16;17.50;94.20
53254;DHT22;39148;53.332;6.922;2023-10-13T15:18:46;17.50;94.20
53254;DHT22;39148;53.332;6.922;2023-10-13T15:21:25;17.70;94.30
53254;DHT22;39148;53.332;6.922;2023-10-13T15:24:04;17.60;94.20
53254;DHT22;39148;53.332;6.922;2023-10-13T15:26:44;17.50;94.20
53254;DHT22;39148;53.332;6.922;2023-10-13T15:29:16;17.60;93.00
53254;DHT22;39148;53.332;6.922;2023-10-13T15:31:46;17.60;93.50
53254;DHT22;39148;53.332;6.922;2023-10-13T15:34:24;17.60;94.20
53254;DHT22;39148;53.332;6.922;2023-10-13T15:36:51;17.60;94.20
53254;DHT22;39148;53.332;6.922;2023-10-13T15:39:18;17.60;94.30
53254;DHT22;39148;53.332;6.922;2023-10-13T15:41:50;17.60;94.20
53254;DHT22;39148;53.332;6.922;2023-10-13T15:44:19;17.70;94.20
53254;DHT22;39148;53.332;6.922;2023-10-13T15:46:46;17.70;94.20
53254;DHT22;39148;53.332;6.922;2023-10-13T15:49:15;17.60;94.20
53254;DHT22;39148;53.332;6.922;2023-10-13T15:51:41;17.70;94.20
53254;DHT22;39148;53.332;6.922;2023-10-13T15:54:07;17.50;93.40
53254;DHT22;39148;53.332;6.922;2023-10-13T15:56:46;17.70;94.40
53254;DHT22;39148;53.332;6.922;2023-10-13T15:59:14;17.70;93.40
53254;DHT22;39148;53.332;6.922;2023-10-13T16:01:40;17.70;94.20
53254;DHT22;39148;53.332;6.922;2023-10-13T16:04:09;17.70;94.30
53254;DHT22;39148;53.332;6.922;2023-10-13T16:06:44;17.70;94.30
53254;DHT22;39148;53.332;6.922;2023-10-13T16:09:16;17.70;94.20
53254;DHT22;39148;53.332;6.922;2023-10-13T16:11:49;17.70;94.20
53254;DHT22;39148;53.332;6.922;2023-10-13T16:14:15;17.60;94.10
53254;DHT22;39148;53.332;6.922;2023-10-13T16:16:48;17.70;94.20
53254;DHT22;39148;53.332;6.922;2023-10-13T16:19:21;17.50;94.10
53254;DHT22;39148;53.332;6.922;2023-10-13T16:21:48;17.50;94.10
53254;DHT22;39148;53.332;6.922;2023-10-13T16:24:14;17.70;94.10
53254;DHT22;39148;53.332;6.922;2023-10-13T16:26:49;17.60;94.10
53254;DHT22;39148;53.332;6.922;2023-10-13T16:29:21;17.60;94.10
53254;DHT22;39148;53.332;6.922;2023-10-13T16:31:48;17.70;94.10
53254;DHT22;39148;53.332;6.922;2023-10-13T16:34:15;17.70;94.20
53254;DHT22;39148;53.332;6.922;2023-10-13T16:36:42;17.60;94.20
53254;DHT22;39148;53.332;6.922;2023-10-13T16:39:13;17.60;94.20
53254;DHT22;39148;53.332;6.922;2023-10-13T16:41:42;17.60;94.20
53254;DHT22;39148;53.332;6.922;2023-10-13T16:44:10;17.60;94.30
53254;DHT22;39148;53.332;6.922;2023-10-13T16:46:40;17.60;94.20
53254;DHT22;39148;53.332;6.922;2023-10-13T16:49:06;17.50;94.20
53254;DHT22;39148;53.332;6.922;2023-10-13T16:51:33;17.50;94.20
53254;DHT22;39148;53.332;6.922;2023-10-13T16:53:58;17.70;94.20
53254;DHT22;39148;53.332;6.922;2023-10-13T16:56:25;17.70;94.30
53254;DHT22;39148;53.332;6.922;2023-10-13T16:58:50;17.70;94.30